createdAt,value
2017-11-11T00:00:10.908Z,15.43
2017-11-11T00:02:38.382Z,16.37
2017-11-11T00:05:06.650Z,28.87
2017-11-11T00:07:34.101Z,13.33
2017-11-11T00:10:01.597Z,36.70
2017-11-11T00:12:29.092Z,13.57
2017-11-11T00:14:56.587Z,19.13
2017-11-11T00:17:24.822Z,22.03
2017-11-11T00:19:52.284Z,16.70
2017-11-11T00:22:19.772Z,22.77
2017-11-11T00:24:47.241Z,26.30
2017-11-11T00:27:15.528Z,21.23
2017-11-11T00:29:43.755Z,19.57
2017-11-11T00:32:11.272Z,59.73
2017-11-11T00:34:39.578Z,20.20
2017-11-11T00:37:07.895Z,14.40
2017-11-11T00:39:35.457Z,17.67
2017-11-11T00:42:02.924Z,12.90
2017-11-11T00:44:31.238Z,18.87
2017-11-11T00:46:58.713Z,27.37
2017-11-11T00:49:26.502Z,17.93
2017-11-11T00:51:53.960Z,23.73
2017-11-11T00:54:21.543Z,13.53
2017-11-11T00:56:49.025Z,19.37
2017-11-11T00:59:17.266Z,13.33
2017-11-11T01:01:44.724Z,13.13
2017-11-11T01:04:12.185Z,29.33
2017-11-11T01:06:39.695Z,15.87
2017-11-11T01:09:07.173Z,18.70
2017-11-11T01:11:34.874Z,14.10
2017-11-11T01:14:02.337Z,9.47
2017-11-11T01:16:29.886Z,13.40
2017-11-11T01:18:57.353Z,21.90
2017-11-11T01:21:26.328Z,19.93
2017-11-11T01:23:53.805Z,19.03
2017-11-11T01:26:21.267Z,23.93
2017-11-11T01:28:49.618Z,23.60
2017-11-11T01:31:17.997Z,18.57
2017-11-11T01:33:45.538Z,34.67
2017-11-11T01:36:13.018Z,20.73
2017-11-11T01:38:40.496Z,21.07
2017-11-11T01:41:08.719Z,29.90
2017-11-11T01:43:36.185Z,26.13
2017-11-11T01:46:03.656Z,25.20
2017-11-11T01:48:31.120Z,29.40
2017-11-11T01:50:58.623Z,20.73
2017-11-11T01:53:26.848Z,12.33
2017-11-11T01:55:54.328Z,13.00
2017-11-11T01:58:21.812Z,18.53
2017-11-11T02:00:50.096Z,14.67
2017-11-11T02:03:18.320Z,10.37
2017-11-11T02:05:45.803Z,11.77
2017-11-11T02:08:13.277Z,25.47
2017-11-11T02:10:41.524Z,22.93
2017-11-11T02:13:09.332Z,14.80
2017-11-11T02:15:36.787Z,21.03
2017-11-11T02:18:05.021Z,16.67
2017-11-11T02:20:32.522Z,21.27
2017-11-11T02:23:00.751Z,25.80
2017-11-11T02:25:28.207Z,14.73
2017-11-11T02:27:55.753Z,17.43
2017-11-11T02:30:23.231Z,30.77
2017-11-11T02:32:50.748Z,17.97
2017-11-11T02:35:18.996Z,16.73
2017-11-11T02:37:46.573Z,26.00
2017-11-11T02:40:14.862Z,15.77
2017-11-11T02:42:43.967Z,15.60
2017-11-11T02:45:11.432Z,16.20
2017-11-11T02:47:38.902Z,17.03
2017-11-11T02:50:06.379Z,17.00
2017-11-11T02:52:33.839Z,19.33
2017-11-11T02:55:01.324Z,21.73
2017-11-11T02:57:28.811Z,25.80
2017-11-11T02:59:57.071Z,24.80
2017-11-11T03:02:25.300Z,15.53
2017-11-11T03:04:52.797Z,20.07
2017-11-11T03:07:21.048Z,22.87
2017-11-11T03:09:48.560Z,17.70
2017-11-11T03:12:16.798Z,25.90
2017-11-11T03:14:44.294Z,18.70
2017-11-11T03:17:12.541Z,33.57
2017-11-11T03:19:40.010Z,19.70
2017-11-11T03:22:07.498Z,30.80
2017-11-11T03:24:35.049Z,18.80
2017-11-11T03:27:03.324Z,16.40
2017-11-11T03:29:31.550Z,15.80
2017-11-11T03:31:59.036Z,29.43
2017-11-11T03:34:26.495Z,25.50
2017-11-11T03:36:53.957Z,22.60
2017-11-11T03:39:21.430Z,25.90
2017-11-11T03:41:49.852Z,27.23
2017-11-11T03:44:17.321Z,19.37
2017-11-11T03:46:44.859Z,25.73
2017-11-11T03:49:12.339Z,19.20
2017-11-11T03:51:39.804Z,19.27
2017-11-11T03:54:07.304Z,23.27
2017-11-11T03:56:35.535Z,24.47
2017-11-11T03:59:03.052Z,20.97
2017-11-11T04:01:31.269Z,31.40
2017-11-11T04:03:58.742Z,19.00
2017-11-11T04:06:26.214Z,22.47
2017-11-11T04:08:53.991Z,14.33
2017-11-11T04:11:22.238Z,13.93
2017-11-11T04:13:49.783Z,13.80
2017-11-11T04:16:17.259Z,22.23
2017-11-11T04:18:44.724Z,13.87
2017-11-11T04:21:12.210Z,19.17
2017-11-11T04:23:39.677Z,16.00
2017-11-11T04:26:07.911Z,19.10
2017-11-11T04:28:36.196Z,27.23
2017-11-11T04:31:03.743Z,14.00
2017-11-11T04:33:31.216Z,16.07
2017-11-11T04:35:58.847Z,16.33
2017-11-11T04:38:26.344Z,19.07
2017-11-11T04:40:54.570Z,10.53
2017-11-11T04:43:22.024Z,8.53
2017-11-11T04:45:49.518Z,6.43
2017-11-11T04:48:16.974Z,20.47
2017-11-11T04:50:44.718Z,27.57
2017-11-11T04:53:12.203Z,13.77
2017-11-11T04:55:39.679Z,14.77
2017-11-11T04:58:07.152Z,19.50
2017-11-11T05:00:35.392Z,15.27
2017-11-11T05:03:02.929Z,10.67
2017-11-11T05:05:31.226Z,18.00
2017-11-11T05:07:58.747Z,14.03
2017-11-11T05:10:26.243Z,15.63
2017-11-11T05:12:53.948Z,13.67
2017-11-11T05:15:22.263Z,15.93
2017-11-11T05:17:49.844Z,11.57
2017-11-11T05:20:17.312Z,18.30
2017-11-11T05:22:44.887Z,9.40
2017-11-11T05:25:12.356Z,7.90
2017-11-11T05:27:40.582Z,8.20
2017-11-11T05:30:08.264Z,12.83
2017-11-11T05:32:35.731Z,7.73
2017-11-11T05:35:03.549Z,12.47
2017-11-11T05:37:31.084Z,14.43
2017-11-11T05:39:59.321Z,17.30
2017-11-11T05:42:26.788Z,11.00
2017-11-11T05:44:54.277Z,8.20
2017-11-11T05:47:22.525Z,14.80
2017-11-11T05:49:50.048Z,6.43
2017-11-11T05:52:17.530Z,6.60
2017-11-11T05:54:45.009Z,15.87
2017-11-11T05:57:12.472Z,13.07
2017-11-11T05:59:40.457Z,11.20
2017-11-11T06:02:08.732Z,13.83
2017-11-11T06:04:36.986Z,16.23
2017-11-11T06:07:04.459Z,14.27
2017-11-11T06:09:32.705Z,13.50
2017-11-11T06:12:00.183Z,15.90
2017-11-11T06:14:27.681Z,10.07
2017-11-11T06:16:55.168Z,10.33
2017-11-11T06:19:22.639Z,16.63
2017-11-11T06:21:50.396Z,17.23
2017-11-11T06:24:17.884Z,8.43
2017-11-11T06:26:45.350Z,13.50
2017-11-11T06:29:12.836Z,9.83
2017-11-11T06:31:41.066Z,12.97
2017-11-11T06:34:08.550Z,13.70
2017-11-11T06:36:36.779Z,13.23
2017-11-11T06:39:04.418Z,11.93
2017-11-11T06:41:31.905Z,7.80
2017-11-11T06:43:59.652Z,16.63
2017-11-11T06:46:27.128Z,9.90
2017-11-11T06:48:54.589Z,13.63
2017-11-11T06:51:22.093Z,7.10
2017-11-11T06:53:50.367Z,14.20
2017-11-11T06:56:18.612Z,21.70
2017-11-11T06:58:46.095Z,8.67
2017-11-11T07:01:13.564Z,20.83
2017-11-11T07:03:41.837Z,9.93
2017-11-11T07:06:10.403Z,12.33
2017-11-11T07:08:37.868Z,9.30
2017-11-11T07:11:06.136Z,12.20
2017-11-11T07:13:33.646Z,7.07
2017-11-11T07:16:01.119Z,15.63
2017-11-11T07:18:28.588Z,19.20
2017-11-11T07:20:56.183Z,11.53
2017-11-11T07:23:23.648Z,6.40
2017-11-11T07:25:51.944Z,9.03
2017-11-11T07:28:20.894Z,12.23
2017-11-11T07:30:48.404Z,13.13
2017-11-11T07:33:16.732Z,11.53
2017-11-11T07:35:44.252Z,24.23
2017-11-11T07:38:11.732Z,10.97
2017-11-11T07:40:39.245Z,18.20
2017-11-11T07:43:07.499Z,10.60
2017-11-11T07:45:35.231Z,23.43
2017-11-11T07:48:02.717Z,8.83
2017-11-11T07:50:30.984Z,11.47
2017-11-11T07:52:58.557Z,11.63
2017-11-11T07:55:26.052Z,13.43
2017-11-11T07:57:53.561Z,6.80
2017-11-11T08:00:21.064Z,7.20
2017-11-11T08:02:49.344Z,14.70
2017-11-11T08:05:17.689Z,14.20
2017-11-11T08:07:45.161Z,16.40
2017-11-11T08:10:13.460Z,13.37
2017-11-11T08:12:41.684Z,20.07
2017-11-11T08:15:09.192Z,11.77
2017-11-11T08:17:36.680Z,7.23
2017-11-11T08:20:04.163Z,10.50
2017-11-11T08:22:31.659Z,9.00
2017-11-11T08:24:59.940Z,24.60
2017-11-11T08:27:28.181Z,15.53
2017-11-11T08:29:55.690Z,30.73
2017-11-11T08:32:23.146Z,22.43
2017-11-11T08:34:50.607Z,26.33
2017-11-11T08:37:18.179Z,26.27
2017-11-11T08:39:45.684Z,22.43
2017-11-11T08:42:13.167Z,22.10
2017-11-11T08:44:41.007Z,13.20
2017-11-11T08:47:08.487Z,15.90
2017-11-11T08:49:36.708Z,16.67
2017-11-11T08:52:04.680Z,15.20
2017-11-11T08:54:32.340Z,15.93
2017-11-11T08:57:00.081Z,17.53
2017-11-11T08:59:28.316Z,14.63
2017-11-11T09:01:56.776Z,14.57
2017-11-11T09:04:24.401Z,14.53
2017-11-11T09:06:53.305Z,23.97
2017-11-11T09:09:20.782Z,22.43
2017-11-11T09:11:48.303Z,24.73
2017-11-11T09:14:15.799Z,21.53
2017-11-11T09:16:43.412Z,28.13
2017-11-11T09:19:10.883Z,15.10
2017-11-11T09:21:39.154Z,19.07
2017-11-11T09:24:07.624Z,14.03
2017-11-11T09:26:46.871Z,23.33
2017-11-11T09:29:15.375Z,12.90
2017-11-11T09:31:42.881Z,19.83
2017-11-11T09:34:11.118Z,13.23
2017-11-11T09:36:38.688Z,12.67
2017-11-11T09:39:07.289Z,12.50
2017-11-11T09:41:35.447Z,11.20
2017-11-11T09:44:03.183Z,15.20
2017-11-11T09:46:31.695Z,17.67
2017-11-11T09:48:59.485Z,23.20
2017-11-11T09:51:27.053Z,13.83
2017-11-11T09:53:54.742Z,20.47
2017-11-11T09:56:23.019Z,14.33
2017-11-11T09:58:50.788Z,7.13
2017-11-11T10:01:19.484Z,14.10
2017-11-11T10:03:46.948Z,9.77
2017-11-11T10:06:14.741Z,13.10
2017-11-11T10:08:42.491Z,8.17
2017-11-11T10:11:11.403Z,7.17
2017-11-11T10:13:38.901Z,12.00
2017-11-11T10:16:07.676Z,13.00
2017-11-11T10:18:35.162Z,6.97
2017-11-11T10:21:02.690Z,13.23
2017-11-11T10:23:30.370Z,8.23
2017-11-11T10:25:58.684Z,12.30
2017-11-11T10:28:26.200Z,6.17
2017-11-11T10:30:55.092Z,4.47
2017-11-11T10:33:22.661Z,6.27
2017-11-11T10:35:50.141Z,4.13
2017-11-11T10:38:18.371Z,7.43
2017-11-11T10:40:45.931Z,5.30
2017-11-11T10:43:13.414Z,8.23
2017-11-11T10:45:40.897Z,6.23
2017-11-11T10:48:09.149Z,5.67
2017-11-11T10:50:36.715Z,7.80
2017-11-11T10:53:04.970Z,8.10
2017-11-11T10:55:32.428Z,5.50
2017-11-11T10:58:00.631Z,7.93
2017-11-11T11:00:28.120Z,7.07
2017-11-11T11:02:56.159Z,7.03
2017-11-11T11:05:24.760Z,8.53
2017-11-11T11:07:53.126Z,8.63
2017-11-11T11:10:21.360Z,14.70
2017-11-11T11:12:49.019Z,6.37
2017-11-11T11:15:16.492Z,6.27
2017-11-11T11:17:44.010Z,5.90
2017-11-11T11:20:11.502Z,6.70
2017-11-11T11:22:39.099Z,6.00
2017-11-11T11:25:07.472Z,7.63
2017-11-11T11:27:34.969Z,5.07
2017-11-11T11:30:03.194Z,7.10
2017-11-11T11:32:30.709Z,7.03
2017-11-11T11:34:58.207Z,5.40
2017-11-11T11:37:25.677Z,6.23
2017-11-11T11:39:53.155Z,5.37
2017-11-11T11:42:20.620Z,5.57
2017-11-11T11:44:48.960Z,5.70
2017-11-11T11:47:17.216Z,6.03
2017-11-11T11:49:44.712Z,6.60
2017-11-11T11:52:12.177Z,8.10
2017-11-11T11:54:39.718Z,7.03
2017-11-11T11:57:07.198Z,5.90
2017-11-11T11:59:34.761Z,5.73
2017-11-11T12:02:02.312Z,11.80
2017-11-11T12:04:29.993Z,6.60
2017-11-11T12:06:57.513Z,6.30
2017-11-11T12:09:24.988Z,12.30
2017-11-11T12:11:52.492Z,8.40
2017-11-11T12:14:19.985Z,7.00
2017-11-11T12:16:47.467Z,6.87
2017-11-11T12:19:14.945Z,8.20
2017-11-11T12:21:42.420Z,9.80
2017-11-11T12:24:10.795Z,8.70
2017-11-11T12:26:39.101Z,9.80
2017-11-11T12:29:06.604Z,10.57
2017-11-11T12:31:34.093Z,10.50
2017-11-11T12:34:01.609Z,15.17
2017-11-11T12:36:29.076Z,10.47
2017-11-11T12:38:56.592Z,13.73
2017-11-11T12:41:24.203Z,9.70
2017-11-11T12:43:51.721Z,15.13
2017-11-11T12:46:19.224Z,16.80
2017-11-11T12:48:46.696Z,13.27
2017-11-11T12:51:14.996Z,13.77
2017-11-11T12:53:43.246Z,16.83
2017-11-11T12:56:10.892Z,15.50
2017-11-11T12:58:38.376Z,15.40
2017-11-11T13:01:05.881Z,15.93
2017-11-11T13:03:33.378Z,24.07
2017-11-11T13:06:00.949Z,25.33
2017-11-11T13:08:29.444Z,18.87
2017-11-11T13:10:57.693Z,16.03
2017-11-11T13:13:26.893Z,14.90
2017-11-11T13:15:54.470Z,21.20
2017-11-11T13:18:22.730Z,15.53
2017-11-11T13:20:50.249Z,15.70
2017-11-11T13:23:18.459Z,22.77
2017-11-11T13:25:45.973Z,20.90
2017-11-11T13:28:13.465Z,14.47
2017-11-11T13:30:41.765Z,18.27
2017-11-11T13:33:09.550Z,20.07
2017-11-11T13:35:37.105Z,22.70
2017-11-11T13:38:04.590Z,17.63
2017-11-11T13:40:32.829Z,18.73
2017-11-11T13:43:00.382Z,17.57
2017-11-11T13:45:27.853Z,15.87
2017-11-11T13:47:55.413Z,17.43
2017-11-11T13:50:23.716Z,14.13
2017-11-11T13:52:51.943Z,15.53
2017-11-11T13:55:19.440Z,15.90
2017-11-11T13:57:46.979Z,16.03
2017-11-11T14:00:16.049Z,14.80
2017-11-11T14:02:43.514Z,15.63
2017-11-11T14:05:10.992Z,15.10
2017-11-11T14:07:39.261Z,13.57
2017-11-11T14:10:06.803Z,13.77
2017-11-11T14:12:34.553Z,13.27
2017-11-11T14:15:02.052Z,25.80
2017-11-11T14:17:30.406Z,17.17
2017-11-11T14:19:58.250Z,22.00
2017-11-11T14:22:25.757Z,15.47
2017-11-11T14:24:53.300Z,19.93
2017-11-11T14:27:20.788Z,18.67
2017-11-11T14:29:48.334Z,15.07
2017-11-11T14:32:15.965Z,23.20
2017-11-11T14:34:43.488Z,18.47
2017-11-11T14:37:12.038Z,21.93
2017-11-11T14:39:39.608Z,21.33
2017-11-11T14:42:07.101Z,20.77
2017-11-11T14:44:35.657Z,23.90
2017-11-11T14:47:03.335Z,25.47
2017-11-11T14:49:30.878Z,19.67
2017-11-11T14:51:58.374Z,23.57
2017-11-11T14:54:25.927Z,20.97
2017-11-11T14:56:53.384Z,19.07
2017-11-11T14:59:22.359Z,17.33
2017-11-11T15:01:49.829Z,32.60
2017-11-11T15:04:18.156Z,41.90
2017-11-11T15:06:45.824Z,16.00
2017-11-11T15:09:13.317Z,21.43
2017-11-11T15:11:40.810Z,30.77
2017-11-11T15:14:09.050Z,32.33
2017-11-11T15:16:36.593Z,27.33
2017-11-11T15:19:04.712Z,35.43
2017-11-11T15:21:32.464Z,26.23
2017-11-11T15:24:00.715Z,25.80
2017-11-11T15:26:28.200Z,33.80
2017-11-11T15:28:56.486Z,33.60
2017-11-11T15:31:24.939Z,33.63
2017-11-11T15:33:52.411Z,32.60
2017-11-11T15:36:20.760Z,32.70
2017-11-11T15:38:48.254Z,37.87
2017-11-11T15:41:16.508Z,32.50
2017-11-11T15:43:44.023Z,42.60
2017-11-11T15:46:11.511Z,31.70
2017-11-11T15:48:39.026Z,40.60
2017-11-11T15:51:06.665Z,39.20
2017-11-11T15:53:34.902Z,39.40
2017-11-11T15:56:02.376Z,44.57
2017-11-11T15:58:29.859Z,33.63
2017-11-11T16:00:57.402Z,38.87
2017-11-11T16:03:24.956Z,34.50
2017-11-11T16:05:52.440Z,39.33
2017-11-11T16:08:20.816Z,35.73
2017-11-11T16:10:49.072Z,40.93
2017-11-11T16:13:16.559Z,38.87
2017-11-11T16:15:44.973Z,33.40
2017-11-11T16:18:12.433Z,35.23
2017-11-11T16:20:39.932Z,36.70
2017-11-11T16:23:07.664Z,48.87
2017-11-11T16:25:35.701Z,46.47
2017-11-11T16:28:03.977Z,62.97
2017-11-11T16:30:31.534Z,77.07
2017-11-11T16:32:59.815Z,39.47
2017-11-11T16:35:27.375Z,48.10
2017-11-11T16:37:54.912Z,51.87
2017-11-11T16:40:23.291Z,48.97
2017-11-11T16:42:50.797Z,61.33
2017-11-11T16:45:18.406Z,59.93
2017-11-11T16:47:45.896Z,51.07
2017-11-11T16:50:13.402Z,61.97
2017-11-11T16:52:40.876Z,65.73
2017-11-11T16:55:09.252Z,72.07
2017-11-11T16:57:36.931Z,52.83
2017-11-11T17:00:05.236Z,59.77
2017-11-11T17:02:32.961Z,74.23
2017-11-11T17:05:00.532Z,44.83
2017-11-11T17:07:28.222Z,60.07
2017-11-11T17:09:55.748Z,56.37
2017-11-11T17:12:23.242Z,66.73
2017-11-11T17:14:50.745Z,78.73
2017-11-11T17:17:18.263Z,66.60
2017-11-11T17:19:45.749Z,75.23
2017-11-11T17:22:13.305Z,74.67
2017-11-11T17:24:40.906Z,75.83
2017-11-11T17:27:09.220Z,83.87
2017-11-11T17:29:36.791Z,78.63
2017-11-11T17:32:04.288Z,77.23
2017-11-11T17:34:31.869Z,82.03
2017-11-11T17:37:00.194Z,104.10
2017-11-11T17:39:27.947Z,128.03
2017-11-11T17:41:56.605Z,94.53
2017-11-11T17:44:24.936Z,92.90
2017-11-11T17:46:52.527Z,109.07
2017-11-11T17:49:20.876Z,90.67
2017-11-11T17:51:48.516Z,97.57
2017-11-11T17:54:15.998Z,94.80
2017-11-11T17:56:43.545Z,100.63
2017-11-11T17:59:11.067Z,103.83
2017-11-11T18:01:39.347Z,125.23
2017-11-11T18:04:06.828Z,135.10
2017-11-11T18:06:34.330Z,139.70
2017-11-11T18:09:01.841Z,117.00
2017-11-11T18:11:29.319Z,115.70
2017-11-11T18:13:56.872Z,137.60
2017-11-11T18:16:24.336Z,118.90
2017-11-11T18:18:51.844Z,121.73
2017-11-11T18:21:20.857Z,117.80
2017-11-11T18:23:49.112Z,115.53
2017-11-11T18:26:16.657Z,118.53
2017-11-11T18:28:44.189Z,123.40
2017-11-11T18:31:12.341Z,116.40
2017-11-11T18:33:40.947Z,142.87
2017-11-11T18:36:08.496Z,137.03
2017-11-11T18:38:36.005Z,115.53
2017-11-11T18:41:03.668Z,94.00
2017-11-11T18:43:31.254Z,70.90
2017-11-11T18:45:59.652Z,53.30
2017-11-11T18:48:27.643Z,35.23
2017-11-11T18:50:55.334Z,45.03
2017-11-11T18:53:23.067Z,42.13
2017-11-11T18:55:50.684Z,30.53
2017-11-11T18:58:18.222Z,36.17
2017-11-11T19:00:46.555Z,48.30
2017-11-11T19:03:14.070Z,31.43
2017-11-11T19:05:42.452Z,38.00
2017-11-11T19:08:10.170Z,35.70
2017-11-11T19:10:37.683Z,43.33
2017-11-11T19:13:06.662Z,29.97
2017-11-11T19:15:34.208Z,39.20
2017-11-11T19:18:01.847Z,32.23
2017-11-11T19:20:29.495Z,35.10
2017-11-11T19:22:57.087Z,58.77
2017-11-11T19:25:24.969Z,63.07
2017-11-11T19:27:54.268Z,68.67
2017-11-11T19:30:21.879Z,84.13
2017-11-11T19:32:49.389Z,81.73
2017-11-11T19:35:17.020Z,101.80
2017-11-11T19:37:44.950Z,94.83
2017-11-11T19:40:13.285Z,97.57
2017-11-11T19:42:40.974Z,107.33
2017-11-11T19:45:08.510Z,100.93
2017-11-11T19:47:36.220Z,99.50
2017-11-11T19:50:03.759Z,104.00
2017-11-11T19:52:31.384Z,123.00
2017-11-11T19:54:59.505Z,115.67
2017-11-11T19:57:28.231Z,112.17
2017-11-11T19:59:55.751Z,129.83
2017-11-11T20:02:24.310Z,127.00
2017-11-11T20:04:52.788Z,128.50
2017-11-11T20:07:20.313Z,182.47
2017-11-11T20:09:49.642Z,183.50
2017-11-11T20:12:17.296Z,153.43
2017-11-11T20:14:44.885Z,135.07
2017-11-11T20:17:14.072Z,137.10
2017-11-11T20:19:41.558Z,130.90
2017-11-11T20:22:09.037Z,128.50
2017-11-11T20:24:37.577Z,132.63
2017-11-11T20:27:05.150Z,153.83
2017-11-11T20:29:33.393Z,153.73
2017-11-11T20:32:01.153Z,152.10
2017-11-11T20:34:28.744Z,142.80
2017-11-11T20:36:56.268Z,150.97
2017-11-11T20:39:23.835Z,154.40
2017-11-11T20:41:51.309Z,166.93
2017-11-11T20:44:18.865Z,160.80
2017-11-11T20:46:46.350Z,175.47
2017-11-11T20:49:14.191Z,132.77
2017-11-11T20:51:41.775Z,153.80
2017-11-11T20:54:09.312Z,148.53
2017-11-11T20:56:36.947Z,160.20
2017-11-11T20:59:05.386Z,124.37
2017-11-11T21:01:34.403Z,148.87
2017-11-11T21:04:01.883Z,171.07
2017-11-11T21:06:29.372Z,159.57
2017-11-11T21:08:56.893Z,167.13
2017-11-11T21:11:25.339Z,165.03
2017-11-11T21:13:53.650Z,147.83
2017-11-11T21:16:22.010Z,140.77
2017-11-11T21:18:49.510Z,153.43
2017-11-11T21:21:17.160Z,155.13
2017-11-11T21:23:44.841Z,134.07
2017-11-11T21:26:12.367Z,141.43
2017-11-11T21:28:40.722Z,126.90
2017-11-11T21:31:08.345Z,127.17
2017-11-11T21:33:35.873Z,126.53
2017-11-11T21:36:04.266Z,152.20
2017-11-11T21:38:31.747Z,145.87
2017-11-11T21:41:03.819Z,150.60
2017-11-11T21:43:31.391Z,124.20
2017-11-11T21:45:59.078Z,146.37
2017-11-11T21:48:26.609Z,135.37
2017-11-11T21:50:54.099Z,150.77
2017-11-11T21:53:21.925Z,122.40
2017-11-11T21:55:49.491Z,116.47
2017-11-11T21:58:16.993Z,138.47
2017-11-11T22:00:44.799Z,162.70
2017-11-11T22:03:12.538Z,147.83
2017-11-11T22:05:41.774Z,129.70
2017-11-11T22:08:09.288Z,126.30
2017-11-11T22:10:37.553Z,117.93
2017-11-11T22:13:05.029Z,128.40
2017-11-11T22:15:33.345Z,166.43
2017-11-11T22:18:01.113Z,140.50
2017-11-11T22:20:28.601Z,122.40
2017-11-11T22:22:56.561Z,134.27
2017-11-11T22:25:25.057Z,163.13
2017-11-11T22:27:52.529Z,167.27
2017-11-11T22:30:21.074Z,188.13
2017-11-11T22:32:48.548Z,156.00
2017-11-11T22:35:16.101Z,204.33
2017-11-11T22:37:43.596Z,141.87
2017-11-11T22:40:11.857Z,154.57
2017-11-11T22:42:39.696Z,164.80
2017-11-11T22:45:07.171Z,130.43
2017-11-11T22:47:34.655Z,132.63
2017-11-11T22:50:02.936Z,126.20
2017-11-11T22:52:30.513Z,133.07
2017-11-11T22:54:57.981Z,111.20
2017-11-11T22:57:25.514Z,98.57
2017-11-11T22:59:52.983Z,97.00
2017-11-11T23:02:21.290Z,90.47
2017-11-11T23:04:48.769Z,97.77
2017-11-11T23:07:17.149Z,103.27
2017-11-11T23:09:44.657Z,117.63
2017-11-11T23:12:13.105Z,125.33
2017-11-11T23:14:40.843Z,120.80
2017-11-11T23:17:08.331Z,101.07
2017-11-11T23:19:35.840Z,106.67
2017-11-11T23:22:03.345Z,98.93
2017-11-11T23:24:30.874Z,82.40
2017-11-11T23:26:58.373Z,100.07
2017-11-11T23:29:25.995Z,89.37
2017-11-11T23:31:53.468Z,103.70
2017-11-11T23:34:20.989Z,95.13
2017-11-11T23:36:48.451Z,87.33
2017-11-11T23:39:15.992Z,84.20
2017-11-11T23:41:44.247Z,88.93
2017-11-11T23:44:12.091Z,86.30
2017-11-11T23:46:39.563Z,91.30
2017-11-11T23:49:07.248Z,84.37
2017-11-11T23:51:34.734Z,80.20
2017-11-11T23:54:02.265Z,88.13
2017-11-11T23:56:29.751Z,89.40
2017-11-11T23:58:57.304Z,95.73
